Latest Coastal Weather Observations for Shark Bay Airport

IDW60701

Issued at 12:33 pm WST Thursday 25 August 2016 (issued every 10 minutes, with the page automatically refreshed every 10 minutes)

About coastal observations | Map of coastal stations | Coastal observations for WA | Marine services | Other Formats
Station Details ID: 006105 Name: SHARK BAY AIRPORT Lat: -25.89 Lon: 113.58 Height: 33.8 m
Data from the previous 72 hours. | See also: Recent months at Shark Bay Airport
Date/Time
WST
Temp
°C
Wind Pressure Rain since
9am
mm
Weather Cloud Vis
km
Sea
Height
m
Swell
Dir  Spd
kts
Gust
kts
hPa Trend Height
m
Period
s
Dir
25/12:30pm 24.7 NE 8 11 1017.1 - 0.0 - - - - - - -
25/12:00pm 24.0 ENE 9 13 1017.6 - 0.0 - - - - - - -
25/11:30am 22.5 ENE 9 12 1018.1 - 0.0 - - - - - - -
25/11:00am 21.8 ENE 10 13 1018.5 - 0.0 - - - - - - -
25/10:30am 20.5 ENE 11 15 1018.7 - 0.0 - - - - - - -
25/10:00am 20.0 ENE 11 16 1018.9 - 0.0 - - - - - - -
25/09:30am 18.8 E 12 15 1018.8 - 0.0 - - - - - - -
25/09:00am 17.8 E 12 16 1018.8 - 0.0 - - - - - - -
25/08:30am 16.6 E 11 14 1018.8 - 0.0 - - - - - - -
25/08:00am 14.0 E 9 11 1018.6 - 0.0 - - - - - - -
25/07:30am 11.1 E 9 10 1018.6 - 0.0 - - - - - - -
25/07:00am 8.3 E 8 9 1018.4 - 0.0 - - - - - - -
25/06:30am 9.1 E 9 11 1018.1 - 0.0 - - - - - - -
25/06:00am 9.4 ESE 10 11 1017.8 - 0.0 - - - - - - -
25/05:30am 9.2 ESE 9 11 1017.6 - 0.0 - - - - - - -
25/05:00am 9.5 ESE 8 10 1017.6 - 0.0 - - - - - - -
25/04:30am 10.3 ESE 9 11 1017.5 - 0.0 - - - - - - -
25/04:00am 10.2 ESE 8 10 1017.4 - 0.0 - - - - - - -
25/03:30am 10.9 ESE 9 11 1017.3 - 0.0 - - - - - - -
25/03:00am 10.1 SE 9 10 1017.4 - 0.0 - - - - - - -
25/02:30am 10.0 SE 9 10 1017.6 - 0.0 - - - - - - -
25/02:00am 9.5 SE 8 9 1017.6 - 0.0 - - - - - - -
25/01:30am 9.4 SE 8 9 1017.7 - 0.0 - - - - - - -
25/01:00am 9.8 SE 7 8 1017.9 - 0.0 - - - - - - -
25/12:30am 9.5 SE 7 8 1018.1 - 0.0 - - - - - - -
25/12:00am 10.2 SSE 7 8 1018.0 - 0.0 - - - - - - -
 
Date/Time
WST
Temp
°C
Wind Pressure Rain since
9am
mm
Weather Cloud Vis
km
Sea
Height
m
Swell
Dir  Spd
kts
Gust
kts
hPa Trend Height
m
Period
s
Dir
24/11:30pm 11.0 SSE 6 7 1018.2 - 0.0 - - - - - - -
24/11:00pm 11.7 SSE 7 9 1018.3 - 0.0 - - - - - - -
24/10:30pm 12.3 SSE 7 9 1018.3 - 0.0 - - - - - - -
24/10:00pm 13.0 SSE 8 11 1018.6 - 0.0 - - - - - - -
24/09:30pm 13.0 S 8 10 1018.7 - 0.0 - - - - - - -
24/09:00pm 13.3 S 9 11 1018.6 - 0.0 - - - - - - -
24/08:30pm 14.0 S 9 11 1018.7 - 0.0 - - - - - - -
24/08:00pm 14.4 S 9 12 1018.6 - 0.0 - - - - - - -
24/07:30pm 14.7 S 9 11 1018.3 - 0.0 - - - - - - -
24/07:00pm 15.1 S 9 11 1018.1 - 0.0 - - - - - - -
24/06:30pm 16.0 S 9 11 1018.1 - 0.0 - - - - - - -
24/06:00pm 18.1 SSE 7 11 1017.9 - 0.0 - - - - - - -
24/05:30pm 20.4 SE 9 13 1017.8 - 0.0 - - - - - - -
24/05:00pm 21.1 SE 9 13 1017.8 - 0.0 - - - - - - -
24/04:30pm 21.4 SE 8 12 1017.9 - 0.0 - - - - - - -
24/04:00pm 21.6 SE 7 12 1018.0 - 0.0 - - - - - - -
24/03:30pm 21.7 E 9 14 1018.3 - 0.0 - - - - - - -
24/03:00pm 21.3 ESE 7 15 1018.4 - 0.0 - - - - - - -
24/02:30pm 21.1 SE 8 14 1018.5 - 0.0 - - - - - - -
24/02:00pm 21.2 ESE 8 13 1018.7 - 0.0 - - - - - - -
24/01:30pm 21.4 ESE 8 15 1019.1 - 0.0 - - - - - - -
24/01:00pm 20.7 ESE 9 15 1019.3 - 0.0 - - - - - - -
24/12:30pm 20.7 E 10 15 1019.7 - 0.0 - - - - - - -
24/12:00pm 20.6 ESE 11 16 1019.8 - 0.0 - - - - - - -
24/11:30am 19.6 E 11 15 1020.1 - 0.0 - - - - - - -
24/11:00am 19.2 E 11 16 1020.3 - 0.0 - - - - - - -
24/10:30am 18.4 E 12 16 1020.4 - 0.0 - - - - - - -
24/10:00am 18.2 E 13 17 1020.4 - 0.0 - - - - - - -
24/09:30am 16.8 E 14 19 1020.4 - 0.0 - - - - - - -
24/09:00am 15.9 E 13 18 1020.4 - 0.0 - - - - - - -
24/08:30am 15.1 E 11 17 1020.5 - 0.0 - - - - - - -
24/08:00am 12.7 ESE 8 11 1020.3 - 0.0 - - - - - - -
24/07:30am 10.2 ESE 7 8 1020.2 - 0.0 - - - - - - -
24/07:00am 8.4 ESE 8 9 1019.7 - 0.0 - - - - - - -
24/06:30am 8.4 ESE 10 11 1019.5 - 0.0 - - - - - - -
24/06:00am 7.7 ESE 9 9 1019.4 - 0.0 - - - - - - -
24/05:30am 7.5 ESE 9 9 1019.3 - 0.0 - - - - - - -
24/05:00am 7.5 ESE 7 8 1019.1 - 0.0 - - - - - - -
24/04:30am 8.3 ESE 9 9 1018.9 - 0.0 - - - - - - -
24/04:00am 8.7 ESE 7 8 1019.0 - 0.0 - - - - - - -
24/03:30am 9.0 SE 8 9 1019.2 - 0.0 - - - - - - -
24/03:00am 9.4 SE 9 11 1019.5 - 0.0 - - - - - - -
24/02:30am 9.7 SE 9 11 1019.8 - 0.0 - - - - - - -
24/02:00am 9.8 SE 8 11 1019.8 - 0.0 - - - - - - -
24/01:30am 9.6 SE 8 11 1019.9 - 0.0 - - - - - - -
24/01:00am 8.2 SSE 8 9 1020.0 - 0.0 - - - - - - -
24/12:30am 8.2 SSE 8 9 1020.1 - 0.0 - - - - - - -
24/12:00am 9.0 SSE 7 10 1020.1 - 0.0 - - - - - - -
 
Date/Time
WST
Temp
°C
Wind Pressure Rain since
9am
mm
Weather Cloud Vis
km
Sea
Height
m
Swell
Dir  Spd
kts
Gust
kts
hPa Trend Height
m
Period
s
Dir
23/11:30pm 9.7 SSE 9 10 1020.0 - 0.0 - - - - - - -
23/11:00pm 10.1 SSE 8 10 1020.1 - 0.0 - - - - - - -
23/10:30pm 10.1 SSE 8 9 1020.0 - 0.0 - - - - - - -
23/10:00pm 10.4 S 9 10 1020.0 - 0.0 - - - - - - -
23/09:30pm 10.7 SSE 8 11 1019.8 - 0.0 - - - - - - -
23/09:00pm 12.1 S 7 8 1019.9 - 0.0 - - - - - - -
23/08:30pm 13.0 S 7 9 1019.8 - 0.0 - - - - - - -
23/08:00pm 13.6 S 8 9 1019.6 - 0.0 - - - - - - -
23/07:30pm 14.4 SSW 9 11 1019.2 - 0.0 - - - - - - -
23/07:00pm 14.0 S 7 8 1018.9 - 0.0 - - - - - - -
23/06:30pm 14.6 SE 5 6 1018.8 - 0.0 - - - - - - -
23/06:00pm 17.0 SE 7 10 1018.6 - 0.0 - - - - - - -
23/05:30pm 18.3 SE 10 15 1018.3 - 0.0 - - - - - - -
23/05:00pm 19.0 ESE 11 16 1018.1 - 0.0 - - - - - - -
23/04:30pm 19.2 ESE 12 17 1018.0 - 0.0 - - - - - - -
23/04:00pm 19.7 ESE 12 16 1018.0 - 0.0 - - - - - - -
23/03:30pm 19.5 ESE 12 18 1018.0 - 0.0 - - - - - - -
23/03:00pm 19.4 ESE 13 19 1018.1 - 0.0 - - - - - - -
23/02:30pm 19.4 ESE 14 19 1018.3 - 0.0 - - - - - - -
23/02:00pm 18.7 SE 14 21 1018.8 - 0.0 - - - - - - -
23/01:30pm 18.6 ESE 15 22 1019.2 - 0.0 - - - - - - -
23/01:00pm 17.7 ESE 16 21 1019.8 - 0.0 - - - - - - -
23/12:30pm 17.4 SE 15 22 1020.4 - 0.0 - - - - - - -
23/12:00pm 16.8 ESE 17 23 1020.9 - 0.0 - - - - - - -
23/11:30am 16.5 ESE 16 22 1021.3 - 0.0 - - - - - - -
23/11:00am 16.4 ESE 15 22 1021.5 - 0.0 - - - - - - -
23/10:30am 15.9 ESE 15 21 1021.9 - 0.0 - - - - - - -
23/10:00am 15.4 ESE 15 21 1022.2 - 0.0 - - - - - - -
23/09:30am 14.8 ESE 16 23 1022.3 - 0.0 - - - - - - -
23/09:00am 14.4 ESE 17 22 1022.2 - 0.2 - - - - - - -
23/08:30am 14.1 ESE 15 21 1022.2 - 0.2 - - - - - - -
23/08:00am 13.1 ESE 13 20 1022.3 - 0.2 - - - - - - -
23/07:30am 11.7 ESE 10 14 1022.1 - 0.2 - - - - - - -
23/07:00am 10.2 ESE 9 12 1021.8 - 0.2 - - - - - - -
23/06:30am 9.9 ESE 9 12 1021.5 - 0.2 - - - - - - -
23/06:00am 9.9 SE 9 12 1021.5 - 0.2 - - - - - - -
23/05:30am 10.3 SE 9 12 1021.4 - 0.2 - - - - - - -
23/05:00am 10.7 SE 9 14 1021.1 - 0.2 - - - - - - -
23/04:30am 10.9 SE 9 12 1020.9 - 0.2 - - - - - - -
23/04:00am 10.8 SE 9 12 1020.7 - 0.2 - - - - - - -
23/03:30am 10.9 SE 9 11 1020.8 - 0.2 - - - - - - -
23/03:00am 10.8 SE 9 12 1020.8 - 0.2 - - - - - - -
23/02:30am 10.7 SE 8 10 1021.1 - 0.2 - - - - - - -
23/02:00am 10.6 SE 8 11 1021.2 - 0.2 - - - - - - -
23/01:30am 11.1 SSE 8 10 1021.2 - 0.2 - - - - - - -
23/01:00am 11.9 SE 9 12 1021.3 - 0.2 - - - - - - -
23/12:30am 12.5 SE 11 15 1021.5 - 0.2 - - - - - - -
23/12:00am 12.3 SSE 9 14 1021.7 - 0.2 - - - - - - -
 
Date/Time
WST
Temp
°C
Wind Pressure Rain since
9am
mm
Weather Cloud Vis
km
Sea
Height
m
Swell
Dir  Spd
kts
Gust
kts
hPa Trend Height
m
Period
s
Dir
22/11:30pm 12.6 SSE 9 16 1021.6 - 0.2 - - - - - - -
22/11:00pm 13.0 SSE 9 14 1021.7 - 0.2 - - - - - - -
22/10:30pm 13.2 SSE 9 14 1022.0 - 0.2 - - - - - - -
22/10:00pm 13.7 SSE 9 13 1022.1 - 0.2 - - - - - - -
22/09:30pm 14.2 SSE 11 16 1022.3 - 0.2 - - - - - - -
22/09:00pm 14.7 SSE 11 16 1022.1 - 0.2 - - - - - - -
22/08:30pm 15.0 S 13 17 1021.8 - 0.2 - - - - - - -
22/08:00pm 15.3 S 13 18 1021.4 - 0.2 - - - - - - -
22/07:30pm 15.3 S 12 17 1021.0 - 0.2 - - - - - - -
22/07:00pm 15.5 S 13 20 1020.5 - 0.2 - - - - - - -
22/06:30pm 16.0 S 13 19 1020.1 - 0.2 - - - - - - -
22/06:00pm 16.6 S 14 21 1019.8 - 0.2 - - - - - - -
22/05:30pm 17.5 S 17 22 1019.4 - 0.2 - - - - - - -
22/05:00pm 18.2 SSW 19 26 1019.1 - 0.2 - - - - - - -
22/04:30pm 19.0 SSW 17 25 1018.7 - 0.2 - - - - - - -
22/04:00pm 19.4 SSW 17 23 1018.5 - 0.2 - - - - - - -
22/03:30pm 19.7 SSW 16 21 1018.5 - 0.2 - - - - - - -
22/03:00pm 20.7 S 17 25 1018.4 - 0.2 - - - - - - -
22/02:35pm 20.5 S 17 26 1018.4 - 0.2 - - - - - - -
22/02:30pm 20.2 S 17 23 1018.3 - 0.2 - - - - - - -
22/02:00pm 19.6 SSE 15 21 1018.5 - 0.2 - - - - - - -
22/01:34pm 20.6 SSE 16 26 1018.8 - 0.2 - - - - - - -
22/01:30pm 19.8 SSE 18 26 1018.8 - 0.2 - - - - - - -
22/01:19pm 20.0 SSE 15 25 1018.9 - 0.2 - - - - - - -
22/01:00pm 19.9 SSE 18 24 1019.2 - 0.2 - - - - - - -
22/12:44pm 19.9 SSE 16 26 1019.3 - 0.2 - - - - - - -

Other Formats:

Comma delimited format used in spreadsheet applications
http://www.bom.gov.au/fwo/IDW60701/IDW60701.95402.axf

JavaScript Object Notation format (JSON) in row-major order
http://www.bom.gov.au/fwo/IDW60701/IDW60701.95402.json